Time;durP1;ratioP1;P1;durP2;ratioP2;P2;SDS_P1;SDS_P2;PMS_P1;PMS_P2;Temp;Humidity;BMP_temperature;BMP_pressure;BME280_temperature;BME280_humidity;BME280_pressure;Samples;Min_cycle;Max_cycle;Signal;HPM_P1;HPM_P2
2021/03/16 00:02:48;;;;;;;57.50;28.03;;;;;;;0.91;88.15;99739.09;3558181;82;32031;-80
2021/03/16 00:07:49;;;;;;;56.37;27.03;;;;;;;0.91;88.28;99739.90;3539021;82;97799;-80
2021/03/16 00:12:50;;;;;;;50.53;24.83;;;;;;;0.84;88.44;99742.89;3551093;82;28049;-80
2021/03/16 00:17:51;;;;;;;56.93;26.07;;;;;;;0.73;88.20;99749.24;3547273;82;98292;-80
2021/03/16 00:22:51;;;;;;;49.43;26.27;;;;;;;0.64;88.22;99751.23;3554071;82;26855;-80
2021/03/16 00:27:52;;;;;;;57.23;26.77;;;;;;;0.63;88.70;99756.97;3541522;80;98890;-80
2021/03/16 00:32:53;;;;;;;50.23;27.23;;;;;;;0.66;88.93;99761.73;3550804;82;31674;-80
2021/03/16 00:37:54;;;;;;;56.87;26.17;;;;;;;0.66;88.93;99761.73;3542298;82;98508;-80
2021/03/16 00:42:55;;;;;;;69.10;33.33;;;;;;;0.75;89.35;99770.58;3544471;82;31709;-79
2021/03/16 00:47:56;;;;;;;64.33;32.23;;;;;;;0.88;90.02;99770.92;3539327;80;98307;-80
2021/03/16 00:52:56;;;;;;;57.95;28.50;;;;;;;1.09;90.05;99768.44;3547588;82;30915;-80
2021/03/16 00:57:57;;;;;;;53.70;27.97;;;;;;;1.30;90.14;99766.52;3548939;82;98579;-80
2021/03/16 01:02:58;;;;;;;55.63;27.80;;;;;;;1.45;89.78;99778.13;3553961;82;26253;-80
2021/03/16 01:07:58;;;;;;;48.47;25.87;;;;;;;1.63;89.96;99780.09;3551977;82;98513;-80
2021/03/16 01:12:59;;;;;;;54.30;24.43;;;;;;;1.78;89.94;99771.34;3558241;82;35119;-80
2021/03/16 01:18:00;;;;;;;58.87;29.63;;;;;;;1.98;89.67;99772.63;3540231;81;98074;-80
2021/03/16 01:23:01;;;;;;;61.77;30.40;;;;;;;2.13;89.13;99766.56;3545273;82;36112;-80
2021/03/16 01:28:01;;;;;;;56.03;26.70;;;;;;;2.13;89.20;99770.63;3543041;80;98370;-80
2021/03/16 01:33:03;;;;;;;54.20;27.40;;;;;;;2.23;88.81;99765.32;3542469;82;34988;-80
2021/03/16 01:38:03;;;;;;;52.57;26.23;;;;;;;2.22;88.60;99766.45;3516344;82;98332;-80
2021/03/16 01:43:12;;;;;;;54.43;25.73;;;;;;;1.97;88.32;99768.92;3550969;82;35159;-80
2021/03/16 01:48:17;;;;;;;45.83;23.43;;;;;;;1.89;88.49;99771.14;3544266;81;98347;-80
2021/03/16 01:53:18;;;;;;;49.00;25.20;;;;;;;2.00;88.73;99773.11;3549981;82;98699;-81
2021/03/16 01:58:18;;;;;;;44.33;20.93;;;;;;;1.98;88.43;99771.85;3543243;82;32737;-80
2021/03/16 02:03:19;;;;;;;43.00;23.07;;;;;;;2.08;88.26;99775.50;3541465;82;98766;-81
2021/03/16 02:08:44;;;;;;;43.63;21.43;;;;;;;2.19;88.00;99773.94;3554146;82;32697;-80
2021/03/16 02:14:18;;;;;;;44.83;21.00;;;;;;;2.26;87.67;99768.73;3540906;81;98556;-80
2021/03/16 02:19:36;;;;;;;49.40;26.27;;;;;;;2.24;87.41;99771.78;3551304;81;25979;-80
2021/03/16 02:25:03;;;;;;;45.83;21.40;;;;;;;2.08;86.88;99776.27;3529112;82;98442;-80
2021/03/16 02:30:07;;;;;;;43.42;21.35;;;;;;;1.81;87.34;99786.38;3545240;82;26495;-80
2021/03/16 02:35:11;;;;;;;44.10;21.77;;;;;;;1.82;87.51;99789.89;3541109;80;98079;-80
2021/03/16 02:40:16;;;;;;;50.53;22.47;;;;;;;1.88;87.83;99793.98;3541802;82;33183;-80
2021/03/16 02:45:17;;;;;;;41.43;21.43;;;;;;;1.91;88.06;99796.81;3527507;80;98431;-79
2021/03/16 02:50:19;;;;;;;48.07;23.57;;;;;;;2.10;88.16;99793.59;3552678;82;33116;-79
2021/03/16 02:55:22;;;;;;;43.97;23.23;;;;;;;2.23;88.02;99804.13;3543749;80;98484;-79
2021/03/16 03:00:24;;;;;;;42.47;23.17;;;;;;;2.24;87.84;99804.94;3544131;82;33962;-79
2021/03/16 03:05:25;;;;;;;45.43;21.67;;;;;;;2.15;87.52;99806.39;3547269;82;98404;-79
2021/03/16 03:10:26;;;;;;;45.97;22.67;;;;;;;2.11;87.71;99812.25;3542811;82;33242;-78
2021/03/16 03:15:27;;;;;;;42.57;20.43;;;;;;;2.07;87.77;99812.69;3534210;81;98370;-78
2021/03/16 03:20:28;;;;;;;41.20;20.43;;;;;;;2.13;87.84;99814.64;3553976;82;33177;-79
2021/03/16 03:25:39;;;;;;;39.67;20.30;;;;;;;2.08;87.88;99822.41;3540393;80;98655;-79
2021/03/16 03:30:40;;;;;;;45.30;23.30;;;;;;;2.23;88.05;99821.77;3551946;82;33532;-79
2021/03/16 03:35:41;;;;;;;39.97;21.40;;;;;;;2.34;87.76;99834.34;3546492;82;98343;-80
2021/03/16 03:40:44;;;;;;;44.20;21.70;;;;;;;2.32;87.47;99848.83;3546602;82;33218;-79
2021/03/16 03:45:51;;;;;;;44.00;23.13;;;;;;;2.26;87.36;99852.34;3550524;81;98400;-79
2021/03/16 03:50:54;;;;;;;56.03;26.40;;;;;;;2.08;87.37;99861.77;3548021;82;33519;-80
2021/03/16 03:55:56;;;;;;;45.33;23.27;;;;;;;2.02;87.53;99863.10;3542736;82;98685;-79
2021/03/16 04:00:57;;;;;;;51.03;26.73;;;;;;;1.94;87.67;99866.70;3522034;82;32814;-80
2021/03/16 04:05:59;;;;;;;53.85;26.65;;;;;;;2.01;88.08;99872.37;3534684;81;98599;-80
2021/03/16 04:11:00;;;;;;;44.27;24.73;;;;;;;2.07;88.25;99876.47;3551354;82;33073;-79
2021/03/16 04:16:02;;;;;;;49.40;24.50;;;;;;;2.25;88.32;99880.59;3543862;82;98624;-79
2021/03/16 04:21:03;;;;;;;48.37;25.67;;;;;;;2.43;88.09;99890.16;3545145;82;32672;-80
2021/03/16 04:26:04;;;;;;;44.40;23.10;;;;;;;2.52;87.67;99891.42;3546668;80;98556;-79
2021/03/16 04:31:05;;;;;;;60.92;29.82;;;;;;;2.40;87.50;99895.47;3493633;82;32738;-80
2021/03/16 04:36:06;;;;;;;60.83;30.90;;;;;;;2.33;87.60;99899.28;3552225;81;98685;-79
2021/03/16 04:41:07;;;;;;;65.97;29.93;;;;;;;2.11;87.81;99903.18;3546967;82;32730;-80
2021/03/16 04:46:09;;;;;;;63.10;29.03;;;;;;;2.10;88.22;99902.95;3575031;80;98556;-79
2021/03/16 04:51:10;;;;;;;51.77;24.20;;;;;;;2.21;88.38;99913.62;3529164;82;32683;-80
2021/03/16 04:56:10;;;;;;;51.50;27.50;;;;;;;2.26;88.48;99908.54;3522995;82;98974;-80
2021/03/16 05:01:11;;;;;;;49.70;25.40;;;;;;;2.44;88.50;99916.73;3535317;82;33073;-79
2021/03/16 05:06:12;;;;;;;42.90;22.80;;;;;;;2.57;88.41;99924.58;3507486;83;98354;-80
2021/03/16 05:11:13;;;;;;;45.55;23.00;;;;;;;2.58;88.44;99928.88;3488201;83;32857;-80
2021/03/16 05:16:13;;;;;;;45.23;22.77;;;;;;;2.48;88.46;99938.83;3489429;82;98640;-80
2021/03/16 05:21:14;;;;;;;44.00;21.07;;;;;;;2.46;88.58;99943.01;3505220;83;26152;-80
2021/03/16 05:26:15;;;;;;;38.97;19.87;;;;;;;2.46;89.01;99946.50;3488695;83;98516;-80
2021/03/16 05:31:15;;;;;;;40.63;18.47;;;;;;;2.50;89.28;99955.58;3503485;83;26055;-80
2021/03/16 05:36:16;;;;;;;43.07;22.07;;;;;;;2.62;89.65;99957.55;3503830;83;98660;-80
2021/03/16 05:41:17;;;;;;;43.20;24.83;;;;;;;2.76;89.94;99966.16;3583031;80;25838;-80
2021/03/16 05:46:19;;;;;;;47.00;24.03;;;;;;;2.94;89.75;99976.52;3592412;80;98719;-80
2021/03/16 05:51:20;;;;;;;43.37;23.53;;;;;;;3.01;89.41;99982.77;3601214;80;33817;-80
2021/03/16 05:56:21;;;;;;;48.63;23.40;;;;;;;2.98;89.36;99984.78;3590510;79;98488;-80
2021/03/16 06:01:22;;;;;;;45.77;23.33;;;;;;;2.96;89.21;99993.84;3605351;80;33303;-80
2021/03/16 06:06:23;;;;;;;54.93;26.97;;;;;;;2.93;89.22;99999.95;3598927;80;98149;-80
2021/03/16 06:11:25;;;;;;;53.13;24.67;;;;;;;2.90;89.26;100004.13;3604746;80;33380;-80
2021/03/16 06:16:26;;;;;;;47.00;24.43;;;;;;;2.88;89.21;100002.32;3615124;80;98479;-81
2021/03/16 06:21:27;;;;;;;45.30;22.70;;;;;;;2.86;89.37;100010.03;3612778;80;33307;-80
2021/03/16 06:26:32;;;;;;;46.93;23.97;;;;;;;3.02;89.60;100019.68;3592482;80;98940;-80
2021/03/16 06:31:33;;;;;;;40.53;20.77;;;;;;;3.19;89.81;100022.20;3609384;80;33274;-80
2021/03/16 06:36:35;;;;;;;43.27;22.67;;;;;;;3.46;89.75;100025.08;3593749;80;98667;-81
2021/03/16 06:41:36;;;;;;;48.43;23.13;;;;;;;3.72;89.98;100027.45;3601424;80;33361;-81
2021/03/16 06:46:39;;;;;;;41.73;22.17;;;;;;;3.89;89.93;100029.38;3607998;80;98505;-80
2021/03/16 06:51:40;;;;;;;41.63;21.53;;;;;;;3.99;89.70;100034.33;3601558;80;33609;-80
2021/03/16 06:56:57;;;;;;;45.27;23.50;;;;;;;4.10;90.08;100035.44;3581107;80;98351;-80
2021/03/16 07:01:58;;;;;;;50.47;26.03;;;;;;;4.23;89.91;100041.11;3591044;80;33285;-79
2021/03/16 07:06:59;;;;;;;51.53;25.43;;;;;;;4.35;90.02;100049.80;3583086;80;98674;-80
2021/03/16 07:12:01;;;;;;;44.10;22.10;;;;;;;4.47;90.19;100060.69;3584993;80;33378;-79
2021/03/16 07:17:02;;;;;;;49.67;24.53;;;;;;;4.53;90.03;100062.02;3577432;80;98538;-79
2021/03/16 07:22:06;;;;;;;51.95;26.48;;;;;;;4.77;90.42;100061.37;3583862;80;33742;-80
2021/03/16 07:27:07;;;;;;;51.80;26.73;;;;;;;5.04;90.12;100071.47;3579585;79;98825;-80
2021/03/16 07:32:09;;;;;;;51.87;26.37;;;;;;;5.32;89.74;100086.42;3588714;81;33327;-80
2021/03/16 07:37:10;;;;;;;57.23;29.47;;;;;;;5.57;89.36;100091.95;3585419;79;98554;-80
2021/03/16 07:42:11;;;;;;;62.77;31.33;;;;;;;6.09;88.14;100111.03;3590287;80;33304;-81
2021/03/16 07:47:13;;;;;;;59.87;29.43;;;;;;;6.09;88.14;100111.03;3575487;80;98809;-80
2021/03/16 07:52:21;;;;;;;53.40;31.07;;;;;;;6.22;88.17;100116.59;3558895;80;33871;-81
2021/03/16 07:57:31;;;;;;;60.67;34.05;;;;;;;6.35;87.56;100121.39;3582062;80;98390;-80
2021/03/16 08:02:38;;;;;;;60.93;33.20;;;;;;;6.25;87.16;100122.73;3584011;80;33364;-81
2021/03/16 08:07:39;;;;;;;62.50;33.02;;;;;;;6.28;86.74;100137.63;3585779;80;98615;-80
2021/03/16 08:12:40;;;;;;;65.20;35.53;;;;;;;6.22;86.50;100148.02;3587160;80;33839;-80
2021/03/16 08:17:41;;;;;;;67.03;34.03;;;;;;;6.13;86.40;100150.17;3579292;80;98712;-80
2021/03/16 08:22:41;;;;;;;58.90;30.13;;;;;;;6.05;86.09;100160.69;3588963;80;33329;-80
2021/03/16 08:27:48;;;;;;;61.13;31.10;;;;;;;5.78;85.28;100165.63;3579012;80;98488;-80
2021/03/16 08:32:49;;;;;;;60.65;30.45;;;;;;;5.70;86.03;100165.23;3581457;80;26645;-80
2021/03/16 08:37:51;;;;;;;62.20;31.23;;;;;;;5.93;86.28;100163.52;3577123;79;98853;-81
2021/03/16 08:42:52;;;;;;;70.77;36.40;;;;;;;6.03;86.11;100153.43;3585387;80;33292;-80
2021/03/16 08:47:53;;;;;;;71.77;37.07;;;;;;;6.19;86.20;100176.64;3574638;79;98853;-80
2021/03/16 08:52:53;;;;;;;73.30;36.40;;;;;;;6.38;85.61;100177.49;3542329;81;33791;-81
2021/03/16 08:57:56;;;;;;;61.67;34.87;;;;;;;6.47;85.38;100172.64;3547161;80;98359;-80
2021/03/16 09:02:59;;;;;;;60.97;33.63;;;;;;;6.44;85.57;100183.50;3551539;81;33352;-80
2021/03/16 09:08:00;;;;;;;62.87;33.50;;;;;;;6.55;85.59;100192.14;3513335;81;98319;-79
2021/03/16 09:13:22;;;;;;;;;;;;;;;;;;;;;
2021/03/16 09:18:12;;;;;;;55.70;30.30;;;;;;;6.86;86.07;100196.18;3519877;81;98441;-80
2021/03/16 09:23:14;;;;;;;53.43;31.03;;;;;;;7.05;85.82;100200.89;3557390;81;33377;-80
2021/03/16 09:28:16;;;;;;;52.63;29.07;;;;;;;7.27;85.34;100196.07;3523016;81;98339;-79
2021/03/16 09:33:21;;;;;;;47.07;28.27;;;;;;;7.57;85.78;100205.27;3549319;81;98903;-79
2021/03/16 09:38:22;;;;;;;54.03;29.20;;;;;;;7.98;85.33;100205.28;3492071;83;33874;-79
2021/03/16 09:43:32;;;;;;;55.93;32.27;;;;;;;8.10;84.04;100214.69;3488442;80;99300;-78
2021/03/16 09:48:33;;;;;;;56.43;31.90;;;;;;;8.31;83.05;100215.66;3564811;80;33305;-78
2021/03/16 09:53:34;;;;;;;50.10;28.63;;;;;;;8.64;84.38;100217.97;3605241;80;99421;-78
2021/03/16 09:58:35;;;;;;;58.10;30.85;;;;;;;8.81;83.03;100203.72;3595504;80;33795;-78
2021/03/16 10:03:35;;;;;;;61.60;34.57;;;;;;;9.26;82.57;100228.84;3605932;77;98870;-78
2021/03/16 10:08:37;;;;;;;54.27;32.23;;;;;;;9.60;81.75;100234.56;3616868;80;33407;-78
2021/03/16 10:13:40;;;;;;;60.50;34.07;;;;;;;9.37;79.95;100247.63;3597443;79;99320;-79
2021/03/16 10:18:46;;;;;;;60.93;36.00;;;;;;;9.22;79.82;100249.97;3592968;80;33958;-80
2021/03/16 10:23:50;;;;;;;59.55;34.50;;;;;;;9.35;79.44;100252.11;3608875;78;98685;-79
2021/03/16 10:28:51;;;;;;;63.87;34.47;;;;;;;9.38;79.61;100254.70;3607192;80;34043;-79
2021/03/16 10:33:54;;;;;;;55.13;32.20;;;;;;;9.25;79.61;100261.00;3580204;80;98418;-79
2021/03/16 10:38:55;;;;;;;53.37;30.57;;;;;;;9.44;79.56;100262.22;3606206;80;33334;-79
2021/03/16 10:43:56;;;;;;;49.80;31.43;;;;;;;9.58;78.98;100261.03;3590436;80;98838;-78
2021/03/16 10:48:57;;;;;;;56.57;33.63;;;;;;;9.94;79.19;100258.91;3606726;80;34241;-76
2021/03/16 10:53:58;;;;;;;50.37;30.47;;;;;;;10.56;78.74;100253.83;3590000;80;98788;-77
2021/03/16 10:58:58;;;;;;;52.47;32.97;;;;;;;10.76;77.49;100268.94;3610955;80;33376;-78
2021/03/16 11:03:59;;;;;;;55.73;35.80;;;;;;;10.91;77.16;100261.57;3606302;79;99193;-78
2021/03/16 11:09:00;;;;;;;46.13;29.03;;;;;;;11.32;77.41;100262.98;3596757;80;33421;-78
2021/03/16 11:14:00;;;;;;;37.53;23.60;;;;;;;11.41;75.26;100271.13;3595290;80;99263;-78
2021/03/16 11:19:03;;;;;;;16.70;9.73;;;;;;;11.44;74.23;100264.83;3610934;80;37012;-78
2021/03/16 11:24:04;;;;;;;12.70;6.73;;;;;;;11.02;72.88;100271.46;3603881;80;98886;-77
2021/03/16 11:29:05;;;;;;;9.83;5.03;;;;;;;10.55;73.80;100270.71;3612859;80;32311;-78
2021/03/16 11:34:06;;;;;;;12.10;6.33;;;;;;;10.20;74.64;100269.80;3601204;79;98928;-77
2021/03/16 11:39:07;;;;;;;11.03;5.50;;;;;;;9.87;74.79;100278.05;3604466;80;32035;-78
2021/03/16 11:44:07;;;;;;;14.47;6.77;;;;;;;9.61;74.79;100285.59;3595337;80;98823;-77
2021/03/16 11:49:08;;;;;;;8.80;4.37;;;;;;;9.34;75.51;100290.36;3604111;80;31772;-78
2021/03/16 11:54:10;;;;;;;8.50;3.83;;;;;;;9.34;75.74;100290.36;3594518;80;98556;-77
2021/03/16 11:59:10;;;;;;;8.47;4.30;;;;;;;9.17;75.69;100293.63;3602328;80;31843;-77
2021/03/16 12:04:11;;;;;;;10.83;5.27;;;;;;;9.37;76.44;100288.83;3594150;80;98398;-77
2021/03/16 12:09:12;;;;;;;7.47;3.33;;;;;;;9.42;75.79;100293.39;3609517;80;35068;-78
2021/03/16 12:14:13;;;;;;;10.30;4.90;;;;;;;9.27;75.22;100292.98;3594600;80;98237;-77
2021/03/16 12:19:16;;;;;;;9.30;3.87;;;;;;;9.05;75.14;100295.81;3609232;80;35049;-78
2021/03/16 12:24:17;;;;;;;7.50;3.55;;;;;;;9.04;75.70;100290.89;3598550;80;98437;-78
2021/03/16 12:29:18;;;;;;;6.90;3.40;;;;;;;9.11;75.40;100288.84;3614188;80;35020;-78
2021/03/16 12:34:19;;;;;;;11.67;3.83;;;;;;;9.15;74.96;100289.66;3596608;80;98438;-78
2021/03/16 12:39:19;;;;;;;7.83;3.80;;;;;;;9.25;74.70;100289.83;3612236;80;35523;-78
2021/03/16 12:44:20;;;;;;;6.43;3.23;;;;;;;9.48;75.01;100293.88;3600793;80;98297;-77
2021/03/16 12:49:21;;;;;;;7.90;4.03;;;;;;;9.76;74.93;100298.35;3610124;80;35399;-78
2021/03/16 12:54:23;;;;;;;8.70;4.07;;;;;;;10.10;74.77;100289.75;3599685;80;98529;-79
2021/03/16 12:59:23;;;;;;;9.40;4.00;;;;;;;10.40;73.19;100282.75;3605591;80;35020;-78
2021/03/16 13:04:26;;;;;;;6.07;2.53;;;;;;;10.69;72.92;100288.73;3604040;80;98319;-78
2021/03/16 13:09:27;;;;;;;8.33;4.23;;;;;;;10.40;71.63;100297.89;3608802;80;35022;-76
2021/03/16 13:14:29;;;;;;;6.30;2.90;;;;;;;10.27;73.38;100302.89;3603853;80;98724;-77
2021/03/16 13:19:30;;;;;;;9.93;4.13;;;;;;;10.09;71.52;100301.89;3598781;80;34972;-76
2021/03/16 13:24:32;;;;;;;9.00;3.70;;;;;;;9.77;72.95;100314.44;3594513;80;98663;-78
2021/03/16 13:29:32;;;;;;;6.63;3.07;;;;;;;9.48;72.36;100312.51;3605685;80;34968;-78
2021/03/16 13:34:35;;;;;;;9.57;4.37;;;;;;;9.24;73.12;100323.95;3598739;80;98262;-77
2021/03/16 13:39:36;;;;;;;8.43;3.97;;;;;;;9.07;72.99;100324.48;3598579;80;34979;-78
2021/03/16 13:44:38;;;;;;;8.97;4.40;;;;;;;8.86;73.24;100332.94;3594060;80;98407;-78
2021/03/16 13:49:39;;;;;;;23.07;11.87;;;;;;;8.75;73.93;100332.78;3601070;80;34945;-77
2021/03/16 13:54:39;;;;;;;8.10;4.23;;;;;;;8.76;73.93;100340.42;3556079;81;99003;-78
2021/03/16 13:59:40;;;;;;;8.67;4.10;;;;;;;8.73;74.57;100338.42;3553927;81;35007;-78
2021/03/16 14:04:41;;;;;;;9.10;4.43;;;;;;;8.89;74.45;100341.23;3547374;81;98600;-79
2021/03/16 14:09:41;;;;;;;9.93;5.15;;;;;;;9.08;74.34;100345.84;3547041;81;35534;-79
2021/03/16 14:14:42;;;;;;;7.83;3.63;;;;;;;9.03;73.84;100355.20;3548482;81;98578;-78
2021/03/16 14:19:43;;;;;;;13.37;5.97;;;;;;;8.93;73.69;100357.19;3554189;81;33327;-77
2021/03/16 14:24:44;;;;;;;9.13;4.60;;;;;;;8.97;74.11;100358.61;3548565;80;98655;-78
2021/03/16 14:29:44;;;;;;;9.33;4.67;;;;;;;8.80;72.97;100365.41;3554304;81;32773;-78
2021/03/16 14:34:45;;;;;;;13.97;5.70;;;;;;;8.57;73.21;100381.05;3534711;80;98305;-78
2021/03/16 14:39:46;;;;;;;8.83;3.80;;;;;;;8.52;74.17;100380.00;3555096;81;32675;-78
2021/03/16 14:44:47;;;;;;;9.10;4.07;;;;;;;8.48;74.29;100390.10;3548729;80;98404;-78
2021/03/16 14:49:48;;;;;;;8.90;3.33;;;;;;;8.41;74.42;100390.55;3549403;80;32691;-78
2021/03/16 14:54:49;;;;;;;6.78;2.83;;;;;;;8.45;73.92;100395.53;3589430;80;98895;-78
2021/03/16 14:59:50;;;;;;;7.27;3.37;;;;;;;8.46;74.58;100398.48;3595418;80;25882;-79
2021/03/16 15:04:50;;;;;;;7.17;2.97;;;;;;;8.41;74.88;100396.03;3572105;80;98320;-78
2021/03/16 15:09:51;;;;;;;7.87;2.50;;;;;;;8.20;74.52;100410.13;3597393;80;25989;-79
2021/03/16 15:14:52;;;;;;;6.13;2.80;;;;;;;7.99;74.67;100405.54;3593668;80;98619;-79
2021/03/16 15:19:53;;;;;;;8.80;3.53;;;;;;;7.71;75.03;100409.61;3585047;80;26440;-79
2021/03/16 15:24:53;;;;;;;7.62;3.55;;;;;;;7.61;75.87;100409.61;3586912;80;98537;-78
2021/03/16 15:29:54;;;;;;;8.43;3.63;;;;;;;7.47;76.18;100413.97;3602416;80;33340;-79
2021/03/16 15:34:55;;;;;;;15.67;6.77;;;;;;;7.28;76.77;100413.89;3577567;79;98285;-78
2021/03/16 15:39:56;;;;;;;47.47;25.47;;;;;;;7.24;77.22;100413.01;3590038;80;33415;-79
2021/03/16 15:44:56;;;;;;;8.93;4.40;;;;;;;7.27;77.55;100427.37;3582258;80;98875;-79
2021/03/16 15:49:57;;;;;;;8.77;4.27;;;;;;;7.32;77.50;100427.10;3588090;80;33805;-79
2021/03/16 15:54:58;;;;;;;8.73;5.20;;;;;;;7.28;77.35;100438.53;3586795;80;98523;-79
2021/03/16 15:59:59;;;;;;;9.43;4.70;;;;;;;7.30;77.11;100442.50;3590461;79;32415;-78
2021/03/16 16:05:02;;;;;;;7.80;3.60;;;;;;;7.08;77.46;100451.91;3579753;80;98682;-78
2021/03/16 16:10:03;;;;;;;9.50;5.10;;;;;;;6.93;77.97;100457.59;3577431;80;31846;-77
2021/03/16 16:15:07;;;;;;;13.00;6.17;;;;;;;6.85;78.41;100459.12;3581161;80;98393;-77
2021/03/16 16:20:11;;;;;;;10.93;5.90;;;;;;;6.75;78.68;100459.08;3586991;80;32361;-78
2021/03/16 16:25:14;;;;;;;13.07;8.80;;;;;;;6.70;78.81;100466.16;3580288;80;98465;-77
2021/03/16 16:30:16;;;;;;;9.77;4.53;;;;;;;6.56;79.09;100465.80;3585045;80;32306;-76
2021/03/16 16:35:17;;;;;;;7.75;3.55;;;;;;;6.53;79.23;100473.32;3580926;79;98743;-77
2021/03/16 16:40:18;;;;;;;10.10;3.90;;;;;;;6.49;79.39;100485.31;3587794;80;31826;-78
2021/03/16 16:45:19;;;;;;;11.40;6.43;;;;;;;6.42;79.79;100492.73;3579171;80;98900;-77
2021/03/16 16:50:20;;;;;;;7.90;3.70;;;;;;;6.44;80.31;100495.13;3584098;80;32166;-78
2021/03/16 16:55:21;;;;;;;12.13;5.97;;;;;;;6.37;80.53;100501.17;3597586;80;98228;-77
2021/03/16 17:00:23;;;;;;;6.17;3.10;;;;;;;6.22;80.55;100503.27;3596258;80;32114;-78
2021/03/16 17:05:26;;;;;;;7.40;3.27;;;;;;;6.11;80.84;100504.11;3608450;80;98626;-78
2021/03/16 17:10:26;;;;;;;7.80;3.60;;;;;;;6.05;80.93;100514.47;3608051;80;26761;-77
2021/03/16 17:15:27;;;;;;;9.83;3.87;;;;;;;5.96;80.85;100521.20;3605794;79;98057;-77
2021/03/16 17:20:28;;;;;;;10.43;4.83;;;;;;;5.83;81.27;100523.15;3608677;80;32271;-78
2021/03/16 17:25:29;;;;;;;12.23;5.40;;;;;;;5.75;81.44;100522.69;3602165;80;98644;-76
2021/03/16 17:30:29;;;;;;;12.00;4.50;;;;;;;5.80;81.70;100525.77;3603030;80;32487;-78
2021/03/16 17:35:31;;;;;;;10.53;5.10;;;;;;;5.90;81.72;100525.31;3604487;80;98328;-79
2021/03/16 17:40:33;;;;;;;11.63;5.80;;;;;;;5.94;81.49;100535.79;3612168;80;31889;-79
2021/03/16 17:45:36;;;;;;;11.30;5.33;;;;;;;5.98;81.57;100542.13;3593749;80;98619;-78
2021/03/16 17:50:37;;;;;;;10.10;5.20;;;;;;;5.93;81.58;100537.71;3602715;80;31756;-77
2021/03/16 17:55:37;;;;;;;12.43;6.43;;;;;;;5.85;81.61;100546.80;3597922;80;98465;-79
2021/03/16 18:00:38;;;;;;;10.90;5.17;;;;;;;5.76;81.86;100554.31;3599395;80;31744;-79
2021/03/16 18:05:39;;;;;;;12.97;7.07;;;;;;;5.72;82.02;100552.61;3592020;80;98444;-79
2021/03/16 18:10:40;;;;;;;11.93;5.23;;;;;;;5.67;82.18;100555.56;3596810;80;31892;-78
2021/03/16 18:15:41;;;;;;;12.43;7.13;;;;;;;5.51;82.33;100550.55;3588957;80;98601;-79
2021/03/16 18:20:42;;;;;;;10.53;5.93;;;;;;;5.39;82.67;100565.52;3610155;80;27541;-79
2021/03/16 18:25:42;;;;;;;9.57;4.90;;;;;;;5.34;82.87;100560.31;3589847;80;98412;-79
2021/03/16 18:30:43;;;;;;;12.20;5.97;;;;;;;5.34;83.20;100565.19;3601277;80;35026;-79
2021/03/16 18:35:44;;;;;;;9.60;5.10;;;;;;;5.39;83.21;100570.42;3604995;80;99000;-79
2021/03/16 18:40:45;;;;;;;9.37;5.23;;;;;;;5.50;83.39;100570.21;3611659;80;35536;-79
2021/03/16 18:45:46;;;;;;;10.13;4.77;;;;;;;5.54;83.38;100571.69;3598569;80;98696;-79
2021/03/16 18:50:47;;;;;;;13.50;7.03;;;;;;;5.56;83.12;100577.05;3606044;80;35438;-78
2021/03/16 18:55:48;;;;;;;13.90;7.73;;;;;;;5.55;83.25;100571.36;3601817;80;98644;-78
2021/03/16 19:00:49;;;;;;;13.63;6.90;;;;;;;5.46;83.26;100572.02;3600309;80;35271;-78
2021/03/16 19:05:50;;;;;;;10.90;4.87;;;;;;;5.40;83.38;100568.51;3595069;80;98694;-78
2021/03/16 19:10:51;;;;;;;8.93;4.80;;;;;;;5.26;83.52;100582.47;3604878;80;34963;-77
2021/03/16 19:15:52;;;;;;;10.95;3.80;;;;;;;5.11;83.47;100576.28;3593710;80;97993;-78
2021/03/16 19:20:52;;;;;;;11.97;4.90;;;;;;;4.98;83.75;100588.30;3603245;80;32836;-79
2021/03/16 19:25:54;;;;;;;13.13;5.40;;;;;;;4.80;84.13;100585.48;3599755;80;98438;-79
2021/03/16 19:30:55;;;;;;;11.13;4.10;;;;;;;4.81;84.46;100590.38;3609472;80;32718;-78
2021/03/16 19:35:57;;;;;;;12.50;5.00;;;;;;;4.89;84.60;100588.94;3599987;80;98597;-80
2021/03/16 19:40:57;;;;;;;10.40;4.03;;;;;;;4.87;84.69;100585.76;3597523;80;33591;-79
2021/03/16 19:46:02;;;;;;;12.13;4.60;;;;;;;4.94;84.52;100594.73;3580486;80;98592;-80
2021/03/16 19:51:06;;;;;;;11.93;5.37;;;;;;;4.97;84.43;100592.13;3607760;80;32723;-80
2021/03/16 19:56:07;;;;;;;11.70;4.80;;;;;;;5.06;84.43;100589.31;3573877;78;98684;-77
2021/03/16 20:01:08;;;;;;;14.40;7.50;;;;;;;5.04;84.23;100595.69;3592367;80;32784;-80
2021/03/16 20:06:09;;;;;;;14.70;6.77;;;;;;;4.99;83.97;100591.80;3582567;80;98163;-79
2021/03/16 20:11:10;;;;;;;15.47;7.47;;;;;;;4.83;84.21;100599.01;3585925;80;33302;-79
2021/03/16 20:16:10;;;;;;;13.30;6.33;;;;;;;4.74;84.35;100601.81;3585725;79;98630;-81
2021/03/16 20:21:11;;;;;;;15.80;7.07;;;;;;;4.68;84.52;100602.34;3578017;80;33242;-81
2021/03/16 20:26:12;;;;;;;12.63;6.63;;;;;;;4.62;84.62;100600.39;3575349;80;98203;-80
2021/03/16 20:31:12;;;;;;;10.38;4.45;;;;;;;4.55;85.01;100604.78;3580876;80;31907;-80
2021/03/16 20:36:13;;;;;;;10.70;5.00;;;;;;;4.52;85.24;100600.80;3587049;79;98226;-80
2021/03/16 20:41:15;;;;;;;13.20;6.17;;;;;;;4.61;85.42;100597.45;3584118;80;26399;-80
2021/03/16 20:46:15;;;;;;;10.20;4.97;;;;;;;4.64;85.42;100594.03;3579743;80;98701;-81
2021/03/16 20:51:17;;;;;;;11.03;4.47;;;;;;;4.67;85.62;100597.47;3589341;80;26081;-80
2021/03/16 20:56:17;;;;;;;10.20;4.83;;;;;;;4.70;85.63;100598.73;3566919;80;98710;-79
2021/03/16 21:01:18;;;;;;;10.83;4.40;;;;;;;4.75;85.63;100593.86;3579742;81;26215;-80
2021/03/16 21:06:19;;;;;;;11.43;4.70;;;;;;;4.77;85.63;100601.16;3570134;81;98725;-80
2021/03/16 21:11:21;;;;;;;11.73;5.60;;;;;;;4.80;85.62;100603.78;3568605;81;26267;-79
2021/03/16 21:16:22;;;;;;;12.03;5.70;;;;;;;4.75;85.59;100602.63;3568806;80;98544;-79
2021/03/16 21:21:23;;;;;;;12.47;5.90;;;;;;;4.68;85.71;100611.33;3575682;81;26138;-79
2021/03/16 21:26:23;;;;;;;13.57;6.07;;;;;;;4.57;85.85;100611.50;3574027;80;98562;-79
2021/03/16 21:31:24;;;;;;;13.43;6.73;;;;;;;4.49;86.11;100623.83;3568858;81;33855;-79
2021/03/16 21:36:25;;;;;;;15.77;6.80;;;;;;;4.40;86.21;100625.80;3572325;80;98893;-79
2021/03/16 21:41:26;;;;;;;12.83;6.03;;;;;;;4.32;86.45;100627.45;3575489;81;33318;-78
2021/03/16 21:46:27;;;;;;;13.93;5.97;;;;;;;4.20;86.60;100623.87;3582847;81;98654;-79
2021/03/16 21:51:28;;;;;;;11.93;6.33;;;;;;;4.11;86.98;100628.56;3581343;79;33321;-79
2021/03/16 21:56:28;;;;;;;12.93;6.10;;;;;;;4.06;87.28;100638.27;3571588;79;98546;-79
2021/03/16 22:01:29;;;;;;;12.47;6.13;;;;;;;4.04;87.49;100631.02;3584390;81;33433;-79
2021/03/16 22:06:30;;;;;;;12.70;6.67;;;;;;;4.01;87.54;100637.91;3570504;80;99083;-79
2021/03/16 22:11:30;;;;;;;14.70;7.23;;;;;;;4.04;87.67;100640.54;3580619;80;32315;-79
2021/03/16 22:16:33;;;;;;;13.77;6.33;;;;;;;4.03;87.70;100638.37;3541239;81;98673;-80
2021/03/16 22:21:33;;;;;;;14.60;7.10;;;;;;;4.06;87.66;100636.92;3511141;82;31742;-79
2021/03/16 22:26:34;;;;;;;14.43;6.73;;;;;;;4.02;87.88;100638.69;3512780;81;98648;-79
2021/03/16 22:31:35;;;;;;;11.90;6.40;;;;;;;4.02;87.96;100629.97;3562187;81;31781;-80
2021/03/16 22:36:36;;;;;;;14.33;6.00;;;;;;;4.05;87.91;100638.05;3552637;81;98554;-79
2021/03/16 22:41:36;;;;;;;13.07;6.27;;;;;;;4.05;88.07;100648.94;3512476;82;31804;-79
2021/03/16 22:46:37;;;;;;;14.83;7.13;;;;;;;4.05;88.10;100640.19;3497257;81;98459;-79
2021/03/16 22:51:38;;;;;;;15.70;6.23;;;;;;;4.07;88.20;100648.04;3577675;81;27120;-79
2021/03/16 22:56:39;;;;;;;12.17;6.47;;;;;;;4.07;88.27;100650.21;3558804;80;98371;-79
2021/03/16 23:01:40;;;;;;;13.97;7.53;;;;;;;4.07;88.38;100649.40;3558219;81;35377;-79
2021/03/16 23:06:41;;;;;;;15.13;7.05;;;;;;;4.09;88.34;100651.25;3523300;82;98376;-80
2021/03/16 23:11:41;;;;;;;13.57;7.67;;;;;;;4.08;88.38;100647.72;3536012;82;34945;-80
2021/03/16 23:16:42;;;;;;;14.50;7.90;;;;;;;4.13;88.42;100645.36;3529048;82;98459;-79
2021/03/16 23:21:46;;;;;;;15.80;8.47;;;;;;;4.16;88.37;100646.08;3528429;82;35102;-79
2021/03/16 23:26:46;;;;;;;15.68;7.83;;;;;;;4.18;88.54;100649.27;3496824;82;98444;-79